Time;durP1;ratioP1;P1;durP2;ratioP2;P2;SDS_P1;SDS_P2;PMS_P1;PMS_P2;Temp;Humidity;BMP_temperature;BMP_pressure;BME280_temperature;BME280_humidity;BME280_pressure;Samples;Min_cycle;Max_cycle;Signal;HPM_P1;HPM_P2
2021/01/25 00:01:34;;;;;;;12.07;6.57;;;1.90;91.10;;;;;;5113237;28;20019;-75
2021/01/25 00:04:00;;;;;;;12.40;7.43;;;1.90;91.10;;;;;;5095303;28;20116;-75
2021/01/25 00:06:25;;;;;;;12.93;7.13;;;1.90;91.10;;;;;;5097899;28;20092;-75
2021/01/25 00:08:51;;;;;;;9.77;6.57;;;2.00;91.20;;;;;;5101791;28;20031;-75
2021/01/25 00:11:16;;;;;;;15.63;8.23;;;1.90;91.20;;;;;;5112758;28;20035;-75
2021/01/25 00:13:42;;;;;;;12.50;6.80;;;1.90;91.20;;;;;;5080524;28;20396;-75
2021/01/25 00:16:08;;;;;;;14.25;7.97;;;1.90;91.30;;;;;;5064798;28;20032;-75
2021/01/25 00:18:34;;;;;;;15.32;7.65;;;1.90;91.30;;;;;;5097428;28;20379;-75
2021/01/25 00:20:59;;;;;;;13.23;8.95;;;1.90;91.30;;;;;;5104666;28;20024;-75
2021/01/25 00:23:25;;;;;;;14.82;7.65;;;1.90;91.30;;;;;;5116303;28;20027;-75
2021/01/25 00:25:51;;;;;;;17.23;9.25;;;1.90;91.40;;;;;;5116837;28;20019;-75
2021/01/25 00:28:16;;;;;;;14.00;9.07;;;1.90;91.40;;;;;;5115659;28;20071;-75
2021/01/25 00:30:42;;;;;;;12.68;8.73;;;1.90;91.40;;;;;;5134218;27;20035;-75
2021/01/25 00:33:07;;;;;;;12.80;9.60;;;1.90;91.70;;;;;;5123658;27;20365;-75
2021/01/25 00:35:33;;;;;;;13.77;9.43;;;1.90;91.50;;;;;;5098785;28;20042;-76
2021/01/25 00:37:59;;;;;;;16.77;8.95;;;1.90;91.60;;;;;;5106526;27;20023;-75
2021/01/25 00:40:24;;;;;;;17.38;10.73;;;1.90;91.50;;;;;;5105053;28;20036;-75
2021/01/25 00:42:50;;;;;;;13.27;9.95;;;2.00;91.50;;;;;;5098886;28;20438;-75
2021/01/25 00:45:16;;;;;;;14.52;10.18;;;2.00;91.50;;;;;;5097205;28;20033;-75
2021/01/25 00:47:42;;;;;;;16.95;10.93;;;2.00;91.50;;;;;;5098359;28;20031;-75
2021/01/25 00:50:08;;;;;;;12.82;9.63;;;2.00;91.50;;;;;;5095739;27;20044;-75
2021/01/25 00:52:34;;;;;;;14.18;9.77;;;1.90;91.50;;;;;;5064374;28;20408;-75
2021/01/25 00:54:59;;;;;;;15.45;10.63;;;2.00;91.60;;;;;;5097694;27;20031;-75
2021/01/25 00:57:25;;;;;;;13.13;9.38;;;1.90;91.50;;;;;;5105276;27;20029;-75
2021/01/25 00:59:51;;;;;;;13.10;9.98;;;2.00;91.60;;;;;;5105384;28;20015;-75
2021/01/25 01:02:16;;;;;;;12.63;9.02;;;2.00;91.60;;;;;;5099586;27;20027;-75
2021/01/25 01:04:42;;;;;;;15.77;10.05;;;2.00;91.50;;;;;;5127730;27;20027;-75
2021/01/25 01:07:07;;;;;;;13.40;9.48;;;2.00;91.50;;;;;;5080992;28;20028;-75
2021/01/25 01:09:33;;;;;;;14.07;9.38;;;2.00;91.50;;;;;;5127767;27;20474;-75
2021/01/25 01:11:59;;;;;;;16.02;10.85;;;2.10;91.60;;;;;;5081105;28;20119;-75
2021/01/25 01:14:24;;;;;;;13.73;10.07;;;2.00;91.50;;;;;;5126353;27;20034;-76
2021/01/25 01:16:51;;;;;;;16.65;10.52;;;2.00;91.50;;;;;;5100251;28;20028;-75
2021/01/25 01:19:17;;;;;;;14.68;9.48;;;2.00;91.60;;;;;;5119445;27;20024;-75
2021/01/25 01:21:42;;;;;;;15.23;9.40;;;2.00;91.60;;;;;;5096573;27;20110;-75
2021/01/25 01:24:08;;;;;;;13.65;9.38;;;2.00;91.60;;;;;;5110835;28;20039;-75
2021/01/25 01:26:34;;;;;;;15.95;10.27;;;2.00;91.60;;;;;;5080623;28;20028;-75
2021/01/25 01:28:59;;;;;;;17.58;9.65;;;2.00;91.60;;;;;;5104636;27;20610;-75
2021/01/25 01:31:25;;;;;;;16.60;10.68;;;2.00;91.60;;;;;;5118043;27;20479;-75
2021/01/25 01:33:51;;;;;;;15.32;10.55;;;2.00;91.60;;;;;;5116599;27;20035;-75
2021/01/25 01:36:16;;;;;;;14.48;9.35;;;2.00;91.70;;;;;;5100615;27;20027;-75
2021/01/25 01:38:42;;;;;;;14.85;9.95;;;2.00;91.60;;;;;;5135782;27;20447;-75
2021/01/25 01:41:07;;;;;;;13.52;9.23;;;2.00;91.70;;;;;;5135126;27;20421;-75
2021/01/25 01:43:33;;;;;;;12.43;9.63;;;2.00;91.60;;;;;;5130744;27;20030;-75
2021/01/25 01:45:59;;;;;;;18.35;9.48;;;2.00;91.60;;;;;;5105938;28;20476;-75
2021/01/25 01:48:25;;;;;;;15.02;9.65;;;2.10;91.60;;;;;;5113040;27;20027;-75
2021/01/25 01:50:51;;;;;;;17.58;10.05;;;2.00;91.60;;;;;;5081210;28;20059;-75
2021/01/25 01:53:18;;;;;;;18.95;10.50;;;2.00;91.60;;;;;;5086772;27;20479;-75
2021/01/25 01:55:44;;;;;;;12.73;9.43;;;2.00;91.60;;;;;;5117716;27;20083;-75
2021/01/25 01:58:10;;;;;;;13.95;9.40;;;2.00;91.60;;;;;;5119587;27;20483;-75
2021/01/25 02:00:36;;;;;;;17.77;10.55;;;2.00;91.70;;;;;;5116490;27;20565;-75
2021/01/25 02:03:02;;;;;;;13.25;9.25;;;2.10;91.70;;;;;;5123859;27;20027;-75
2021/01/25 02:05:28;;;;;;;11.10;8.13;;;2.00;91.70;;;;;;5096643;28;20346;-75
2021/01/25 02:07:57;;;;;;;14.98;9.60;;;2.10;91.70;;;;;;5091699;28;20039;-75
2021/01/25 02:10:25;;;;;;;14.52;9.38;;;2.10;91.70;;;;;;5114945;28;20019;-75
2021/01/25 02:12:56;;;;;;;13.95;8.93;;;2.10;91.60;;;;;;5132457;27;20031;-75
2021/01/25 02:15:22;;;;;;;14.88;7.70;;;2.00;91.60;;;;;;5120256;27;20027;-75
2021/01/25 02:17:50;;;;;;;11.70;8.88;;;2.00;91.60;;;;;;5127087;27;20039;-76
2021/01/25 02:20:34;;;;;;;16.35;9.25;;;2.10;91.70;;;;;;5097827;27;20027;-76
2021/01/25 02:23:21;;;;;;;13.82;8.57;;;2.00;91.70;;;;;;5115303;28;20024;-75
2021/01/25 02:25:53;;;;;;;13.02;8.45;;;2.00;91.60;;;;;;5110279;27;20034;-76
2021/01/25 02:28:19;;;;;;;11.00;8.27;;;2.10;91.70;;;;;;5100503;27;20485;-75
2021/01/25 02:30:46;;;;;;;14.40;9.85;;;2.10;91.70;;;;;;5116392;27;20034;-76
2021/01/25 02:33:13;;;;;;;12.77;8.43;;;2.10;91.70;;;;;;5119320;27;20032;-75
2021/01/25 02:35:39;;;;;;;14.85;8.57;;;2.10;91.70;;;;;;5096135;28;20020;-75
2021/01/25 02:38:09;;;;;;;12.35;8.80;;;2.10;91.70;;;;;;5127125;27;20023;-75
2021/01/25 02:40:36;;;;;;;13.52;8.45;;;2.10;91.70;;;;;;5115075;27;20046;-76
2021/01/25 02:43:03;;;;;;;12.77;9.15;;;2.10;91.70;;;;;;5113638;27;20023;-75
2021/01/25 02:45:29;;;;;;;11.43;8.23;;;2.10;91.60;;;;;;5096092;28;20384;-75
2021/01/25 02:47:55;;;;;;;11.93;9.25;;;2.10;91.60;;;;;;5079491;28;20032;-75
2021/01/25 02:50:21;;;;;;;15.68;9.38;;;2.10;91.60;;;;;;5088907;27;20035;-75
2021/01/25 02:52:46;;;;;;;14.75;9.75;;;2.10;91.60;;;;;;5096578;28;20687;-76
2021/01/25 02:55:12;;;;;;;13.75;9.07;;;2.10;91.70;;;;;;5109051;28;20051;-75
2021/01/25 02:57:39;;;;;;;13.05;8.65;;;2.20;91.70;;;;;;5095815;28;20400;-76
2021/01/25 03:00:07;;;;;;;14.48;8.02;;;2.20;91.70;;;;;;5112498;27;20098;-76
2021/01/25 03:02:34;;;;;;;13.50;9.98;;;2.20;91.70;;;;;;5134458;27;20018;-75
2021/01/25 03:05:00;;;;;;;12.60;9.73;;;2.10;91.60;;;;;;5128690;27;20412;-75
2021/01/25 03:07:27;;;;;;;12.38;9.40;;;2.10;91.60;;;;;;5113641;28;20388;-75
2021/01/25 03:09:53;;;;;;;13.82;9.30;;;2.10;91.70;;;;;;5095321;28;20051;-75
2021/01/25 03:12:18;;;;;;;12.75;8.60;;;2.10;91.70;;;;;;5103705;28;20077;-75
2021/01/25 03:14:45;;;;;;;13.82;9.25;;;2.10;91.70;;;;;;5095709;28;20028;-76
2021/01/25 03:17:11;;;;;;;12.65;9.45;;;2.10;91.70;;;;;;5115093;28;20075;-75
2021/01/25 03:19:36;;;;;;;14.05;9.27;;;2.10;91.70;;;;;;5069740;28;20076;-75
2021/01/25 03:22:02;;;;;;;13.55;9.20;;;2.10;91.70;;;;;;5123355;27;20476;-75
2021/01/25 03:24:28;;;;;;;12.60;8.65;;;2.10;91.70;;;;;;5095565;28;20036;-76
2021/01/25 03:26:53;;;;;;;13.35;9.73;;;2.10;92.00;;;;;;5110792;28;20027;-75
2021/01/25 03:29:19;;;;;;;13.18;9.60;;;2.20;91.70;;;;;;5133343;27;20399;-75
2021/01/25 03:31:44;;;;;;;12.38;8.73;;;2.20;91.70;;;;;;5106723;28;20039;-75
2021/01/25 03:34:10;;;;;;;17.27;11.07;;;2.20;91.70;;;;;;5095456;28;20035;-76
2021/01/25 03:36:36;;;;;;;13.68;9.55;;;2.20;91.70;;;;;;5088737;28;20118;-75
2021/01/25 03:39:04;;;;;;;14.32;10.18;;;2.20;91.70;;;;;;5078684;28;20052;-75
2021/01/25 03:41:29;;;;;;;16.27;10.85;;;2.20;91.70;;;;;;5091170;28;20042;-75
2021/01/25 03:43:55;;;;;;;12.27;9.48;;;2.20;91.70;;;;;;5091831;28;20024;-75
2021/01/25 03:46:21;;;;;;;16.20;10.50;;;2.20;91.70;;;;;;5091286;28;20477;-75
2021/01/25 03:48:47;;;;;;;18.20;10.65;;;2.20;91.70;;;;;;5095162;28;20032;-75
2021/01/25 03:51:14;;;;;;;16.13;11.68;;;2.20;91.70;;;;;;5075142;28;20040;-76
2021/01/25 03:53:39;;;;;;;18.55;12.60;;;2.20;91.70;;;;;;5075246;28;20029;-75
2021/01/25 03:56:05;;;;;;;15.80;10.70;;;2.20;91.70;;;;;;5104302;28;20084;-75
2021/01/25 03:58:31;;;;;;;19.73;11.52;;;2.20;91.70;;;;;;5094830;28;20091;-76
2021/01/25 04:00:56;;;;;;;21.48;12.93;;;2.10;91.70;;;;;;5094604;28;20388;-75
2021/01/25 04:03:22;;;;;;;21.80;13.32;;;2.10;91.70;;;;;;5113811;28;20047;-75
2021/01/25 04:05:47;;;;;;;22.52;14.45;;;2.10;91.70;;;;;;5081930;28;20032;-75
2021/01/25 04:08:14;;;;;;;22.30;14.27;;;2.10;91.70;;;;;;5082062;28;20031;-75
2021/01/25 04:10:39;;;;;;;18.25;12.52;;;2.10;91.80;;;;;;5095392;28;20088;-76
2021/01/25 04:13:05;;;;;;;25.80;15.38;;;2.10;91.70;;;;;;5094879;28;20032;-75
2021/01/25 04:15:31;;;;;;;21.55;15.00;;;2.10;91.80;;;;;;5095267;28;20028;-75
2021/01/25 04:17:56;;;;;;;20.58;13.02;;;2.10;91.80;;;;;;5074834;28;20051;-75
2021/01/25 04:20:22;;;;;;;21.83;14.27;;;2.10;91.80;;;;;;5103263;28;20034;-75
2021/01/25 04:22:47;;;;;;;19.55;13.82;;;2.10;91.80;;;;;;5095729;28;20111;-75
2021/01/25 04:25:13;;;;;;;25.20;15.45;;;2.10;91.80;;;;;;5077967;28;20040;-75
2021/01/25 04:27:39;;;;;;;22.88;15.50;;;2.10;91.80;;;;;;5095893;28;20035;-75
2021/01/25 04:30:12;;;;;;;22.75;13.63;;;2.10;91.80;;;;;;5095061;28;20028;-75
2021/01/25 04:32:38;;;;;;;24.00;16.25;;;2.10;91.90;;;;;;5061970;28;20027;-75
2021/01/25 04:35:11;;;;;;;23.85;15.35;;;2.10;91.90;;;;;;5094622;28;20039;-75
2021/01/25 04:37:38;;;;;;;23.80;14.30;;;2.10;91.90;;;;;;5094355;28;20020;-75
2021/01/25 04:40:13;;;;;;;25.98;16.85;;;2.10;91.90;;;;;;5116779;27;20490;-75
2021/01/25 04:42:40;;;;;;;25.90;15.80;;;2.10;91.90;;;;;;5090379;27;20035;-75
2021/01/25 04:45:07;;;;;;;23.35;14.82;;;2.00;91.90;;;;;;5122671;27;20027;-75
2021/01/25 04:47:34;;;;;;;21.30;14.35;;;2.10;92.00;;;;;;5123934;27;20086;-75
2021/01/25 04:50:00;;;;;;;27.40;16.52;;;2.10;92.00;;;;;;5107021;27;20027;-75
2021/01/25 04:52:27;;;;;;;23.98;14.55;;;2.10;92.00;;;;;;5111349;28;20032;-75
2021/01/25 04:54:54;;;;;;;20.98;14.50;;;2.10;92.00;;;;;;5096111;27;20426;-75
2021/01/25 04:57:20;;;;;;;23.50;15.38;;;2.00;92.00;;;;;;5115926;27;20023;-75
2021/01/25 04:59:48;;;;;;;21.67;15.38;;;2.00;92.00;;;;;;5125642;27;20027;-75
2021/01/25 05:02:13;;;;;;;22.35;13.77;;;2.00;92.00;;;;;;5129890;27;20410;-75
2021/01/25 05:04:42;;;;;;;21.15;14.48;;;2.00;92.00;;;;;;5116435;27;20024;-75
2021/01/25 05:07:07;;;;;;;22.30;14.60;;;2.00;92.10;;;;;;5117395;27;20048;-75
2021/01/25 05:09:33;;;;;;;26.50;16.33;;;2.10;92.10;;;;;;5086829;27;20053;-75
2021/01/25 05:12:01;;;;;;;26.60;16.42;;;2.10;92.00;;;;;;5128346;27;20027;-75
2021/01/25 05:14:40;;;;;;;24.63;15.90;;;2.10;92.00;;;;;;5115345;27;20046;-75
2021/01/25 05:17:12;;;;;;;23.85;16.23;;;2.10;92.00;;;;;;5107233;27;20028;-76
2021/01/25 05:19:40;;;;;;;20.83;14.55;;;2.10;92.00;;;;;;5108345;27;20051;-75
2021/01/25 05:22:25;;;;;;;22.38;14.80;;;2.10;92.00;;;;;;5097154;28;20020;-75
2021/01/25 05:24:53;;;;;;;21.88;14.77;;;2.10;92.00;;;;;;5114160;27;20019;-75
2021/01/25 05:27:28;;;;;;;25.85;15.85;;;2.10;92.00;;;;;;5115292;27;20028;-75
2021/01/25 05:30:07;;;;;;;24.52;15.32;;;2.10;92.00;;;;;;5095446;28;20042;-75
2021/01/25 05:32:32;;;;;;;20.48;14.52;;;2.10;92.00;;;;;;5081998;28;20047;-75
2021/01/25 05:35:02;;;;;;;23.20;15.82;;;2.20;92.00;;;;;;5095137;27;20032;-75
2021/01/25 05:37:28;;;;;;;23.25;15.70;;;2.20;92.00;;;;;;5109835;27;20053;-75
2021/01/25 05:39:54;;;;;;;23.00;15.10;;;2.10;92.00;;;;;;5094681;28;20056;-75
2021/01/25 05:42:19;;;;;;;22.58;14.85;;;2.10;92.00;;;;;;5080701;27;20028;-75
2021/01/25 05:44:45;;;;;;;27.95;16.02;;;2.10;92.00;;;;;;5106270;28;20024;-76
2021/01/25 05:47:12;;;;;;;27.25;15.35;;;2.10;92.00;;;;;;5095558;28;20027;-75
2021/01/25 05:49:38;;;;;;;25.25;16.35;;;2.10;92.00;;;;;;5096669;28;20023;-75
2021/01/25 05:52:04;;;;;;;23.02;15.55;;;2.10;92.00;;;;;;5096744;28;20404;-75
2021/01/25 05:54:31;;;;;;;23.02;15.88;;;2.10;92.00;;;;;;5117130;27;20065;-74
2021/01/25 05:56:57;;;;;;;30.25;17.77;;;2.10;92.10;;;;;;5100889;28;20436;-75
2021/01/25 05:59:23;;;;;;;23.23;15.27;;;2.10;92.10;;;;;;5133948;27;20102;-75
2021/01/25 06:01:49;;;;;;;26.33;17.70;;;2.00;92.10;;;;;;5113585;28;20055;-75
2021/01/25 06:04:21;;;;;;;28.05;16.02;;;2.00;92.10;;;;;;5079330;28;20024;-75
2021/01/25 06:07:16;;;;;;;22.83;15.68;;;2.10;92.10;;;;;;5135319;27;20399;-75
2021/01/25 06:09:53;;;;;;;30.75;18.88;;;2.00;92.10;;;;;;5065085;28;20496;-76
2021/01/25 06:12:40;;;;;;;30.08;16.50;;;2.00;92.10;;;;;;5095416;27;20034;-75
2021/01/25 06:15:14;;;;;;;29.73;17.35;;;2.00;92.20;;;;;;5096109;28;20115;-75
2021/01/25 06:17:45;;;;;;;20.77;15.40;;;2.00;92.10;;;;;;5104383;28;20367;-75
2021/01/25 06:20:11;;;;;;;27.15;17.00;;;2.00;92.10;;;;;;5114669;28;20069;-75
2021/01/25 06:22:37;;;;;;;22.50;15.40;;;2.00;92.10;;;;;;5126647;27;20379;-75
2021/01/25 06:25:06;;;;;;;23.40;16.67;;;2.00;92.10;;;;;;5135241;27;20015;-75
2021/01/25 06:27:32;;;;;;;25.10;15.20;;;2.00;92.20;;;;;;5097603;28;20028;-75
2021/01/25 06:30:02;;;;;;;30.95;19.08;;;2.00;92.20;;;;;;5114169;28;20034;-75
2021/01/25 06:32:32;;;;;;;31.67;17.90;;;2.00;92.20;;;;;;5110750;28;20032;-75
2021/01/25 06:34:59;;;;;;;23.13;16.15;;;2.00;92.20;;;;;;5096517;28;20031;-75
2021/01/25 06:37:28;;;;;;;31.20;17.23;;;2.00;92.20;;;;;;5084049;28;20125;-76
2021/01/25 06:39:57;;;;;;;26.25;17.13;;;1.90;92.20;;;;;;5077895;28;20048;-75
2021/01/25 06:42:31;;;;;;;21.77;14.70;;;1.90;92.20;;;;;;5130436;27;20031;-75
2021/01/25 06:45:00;;;;;;;28.80;16.85;;;1.90;92.20;;;;;;5127418;27;20050;-75
2021/01/25 06:47:26;;;;;;;25.45;16.48;;;1.90;92.30;;;;;;5095856;28;20415;-76
2021/01/25 06:49:52;;;;;;;20.83;14.68;;;1.90;92.30;;;;;;5096441;28;20024;-75
2021/01/25 06:52:18;;;;;;;26.48;17.02;;;1.90;92.30;;;;;;5099981;28;20028;-75
2021/01/25 06:54:44;;;;;;;27.55;17.17;;;1.90;92.40;;;;;;5106726;28;20027;-76
2021/01/25 06:57:22;;;;;;;22.45;16.15;;;1.80;92.40;;;;;;5113969;28;20107;-76
2021/01/25 06:59:50;;;;;;;29.73;16.15;;;1.80;92.40;;;;;;5114142;28;20023;-76
2021/01/25 07:02:21;;;;;;;22.58;15.23;;;1.80;92.40;;;;;;5112736;28;20545;-76
2021/01/25 07:04:49;;;;;;;27.75;17.67;;;1.90;92.40;;;;;;5100124;27;20080;-75
2021/01/25 07:07:41;;;;;;;29.65;17.73;;;1.90;92.50;;;;;;5116746;27;20405;-75
2021/01/25 07:10:07;;;;;;;33.58;18.27;;;1.90;92.50;;;;;;5122988;27;20044;-77
2021/01/25 07:12:33;;;;;;;34.08;20.00;;;1.80;92.40;;;;;;5095967;28;20031;-76
2021/01/25 07:15:00;;;;;;;28.85;19.52;;;1.80;92.50;;;;;;5095816;28;20541;-75
2021/01/25 07:17:26;;;;;;;35.95;22.73;;;1.90;92.50;;;;;;5109883;27;20027;-76
2021/01/25 07:19:51;;;;;;;38.80;23.23;;;1.90;92.50;;;;;;5110526;28;20388;-76
2021/01/25 07:22:20;;;;;;;29.98;20.25;;;1.90;92.50;;;;;;5112343;28;20024;-76
2021/01/25 07:24:49;;;;;;;35.90;23.08;;;1.80;92.50;;;;;;5113539;28;20023;-76
2021/01/25 07:27:15;;;;;;;35.00;20.95;;;1.80;92.50;;;;;;5114024;28;20114;-75
2021/01/25 07:29:40;;;;;;;33.95;20.40;;;1.80;92.50;;;;;;5097966;28;20035;-75
2021/01/25 07:32:06;;;;;;;29.60;18.67;;;1.80;92.50;;;;;;5133969;27;20048;-76
2021/01/25 07:34:33;;;;;;;27.48;17.55;;;1.80;92.50;;;;;;5126869;27;20026;-76
2021/01/25 07:36:59;;;;;;;30.80;18.80;;;1.90;92.60;;;;;;5091844;28;20042;-75
2021/01/25 07:39:24;;;;;;;29.00;17.48;;;1.90;92.50;;;;;;5113490;28;20044;-76
2021/01/25 07:41:50;;;;;;;26.13;17.98;;;1.90;92.40;;;;;;5095605;28;20054;-76
2021/01/25 07:44:16;;;;;;;26.35;15.90;;;1.90;92.50;;;;;;5095452;28;20028;-75
2021/01/25 07:46:45;;;;;;;28.30;15.40;;;1.90;92.40;;;;;;5104306;28;20464;-76
2021/01/25 07:49:11;;;;;;;25.73;15.90;;;1.90;92.50;;;;;;5111343;28;20055;-75
2021/01/25 07:51:37;;;;;;;32.05;17.20;;;1.90;92.40;;;;;;5112242;28;20040;-75
2021/01/25 07:54:04;;;;;;;29.83;16.15;;;1.90;92.40;;;;;;5112290;28;20038;-76
2021/01/25 07:56:30;;;;;;;20.27;13.85;;;1.90;92.40;;;;;;5112445;28;20492;-76
2021/01/25 07:59:11;;;;;;;31.40;16.27;;;1.90;92.40;;;;;;5113314;28;20030;-76
2021/01/25 08:01:43;;;;;;;21.70;14.73;;;1.90;92.40;;;;;;5113371;28;20024;-75
2021/01/25 08:04:11;;;;;;;23.92;15.45;;;2.00;92.40;;;;;;5111417;28;20032;-75
2021/01/25 08:06:37;;;;;;;25.27;16.00;;;2.00;92.40;;;;;;5096343;28;20077;-75
2021/01/25 08:09:10;;;;;;;27.52;16.02;;;2.10;92.70;;;;;;5095184;28;20488;-76
2021/01/25 08:11:36;;;;;;;26.30;16.50;;;2.10;92.40;;;;;;5074566;28;20427;-75
2021/01/25 08:14:08;;;;;;;27.80;18.10;;;2.10;92.40;;;;;;5092640;28;20031;-75
2021/01/25 08:16:39;;;;;;;26.33;16.88;;;2.20;92.40;;;;;;5074460;28;20035;-76
2021/01/25 08:19:19;;;;;;;27.38;17.48;;;2.20;92.40;;;;;;5095290;28;20027;-75
2021/01/25 08:21:57;;;;;;;30.58;19.25;;;2.20;92.30;;;;;;5110884;28;20015;-75
2021/01/25 08:24:23;;;;;;;29.77;17.73;;;2.20;92.30;;;;;;5094964;28;20032;-76
2021/01/25 08:26:54;;;;;;;27.27;17.48;;;2.20;92.30;;;;;;5105741;28;21060;-76
2021/01/25 08:29:25;;;;;;;26.38;17.52;;;2.20;92.30;;;;;;5113200;28;20060;-75
2021/01/25 08:31:50;;;;;;;30.45;16.65;;;2.20;92.30;;;;;;5111562;28;20437;-77
2021/01/25 08:34:31;;;;;;;28.33;18.15;;;2.20;92.30;;;;;;5133753;27;20019;-75
2021/01/25 08:37:09;;;;;;;26.92;17.23;;;2.30;92.30;;;;;;5118525;27;20092;-75
2021/01/25 08:39:43;;;;;;;28.65;18.60;;;2.30;92.20;;;;;;5128513;27;20036;-76
2021/01/25 08:42:18;;;;;;;30.40;19.27;;;2.30;92.20;;;;;;5098536;28;20027;-76
2021/01/25 08:44:50;;;;;;;23.92;17.17;;;2.30;92.00;;;;;;5098542;28;20030;-76
2021/01/25 08:47:25;;;;;;;35.03;19.52;;;2.30;92.10;;;;;;5098367;28;20054;-76
2021/01/25 08:49:51;;;;;;;27.77;17.83;;;2.40;92.10;;;;;;5099101;28;20543;-78
2021/01/25 08:52:39;;;;;;;31.75;18.80;;;2.40;92.00;;;;;;5096916;28;20039;-76
2021/01/25 08:55:23;;;;;;;28.67;19.45;;;2.40;91.90;;;;;;5094404;28;20063;-77
2021/01/25 08:57:49;;;;;;;28.08;17.23;;;2.40;91.80;;;;;;5095507;28;20071;-77
2021/01/25 09:00:31;;;;;;;25.20;17.15;;;2.50;91.80;;;;;;5108556;28;20038;-76
2021/01/25 09:03:00;;;;;;;25.00;16.85;;;2.50;91.80;;;;;;5090237;28;20480;-76
2021/01/25 09:05:25;;;;;;;22.88;16.15;;;2.50;91.70;;;;;;5086848;27;20030;-76
2021/01/25 09:07:52;;;;;;;22.02;15.88;;;2.60;91.70;;;;;;5091227;28;20027;-76
2021/01/25 09:10:18;;;;;;;23.75;15.88;;;2.60;91.60;;;;;;5115899;28;20035;-76
2021/01/25 09:12:43;;;;;;;23.73;16.00;;;2.70;91.60;;;;;;5115651;28;20040;-76
2021/01/25 09:15:10;;;;;;;23.55;16.30;;;2.70;91.80;;;;;;5080556;28;20032;-76
2021/01/25 09:17:36;;;;;;;22.52;16.17;;;2.70;91.40;;;;;;5097405;28;20043;-76
2021/01/25 09:20:04;;;;;;;22.83;15.57;;;2.60;91.30;;;;;;5115851;28;20015;-76
2021/01/25 09:22:30;;;;;;;27.67;17.92;;;2.60;91.30;;;;;;5115876;28;20483;-77
2021/01/25 09:24:56;;;;;;;26.10;16.90;;;2.60;91.20;;;;;;5100765;27;20038;-76
2021/01/25 09:27:22;;;;;;;31.17;19.58;;;2.50;91.20;;;;;;5060773;28;20020;-76
2021/01/25 09:29:48;;;;;;;27.92;18.85;;;2.50;91.20;;;;;;5082479;28;20116;-76
2021/01/25 09:32:13;;;;;;;28.30;19.38;;;2.40;91.10;;;;;;5099987;27;20027;-77
2021/01/25 09:34:39;;;;;;;28.25;19.52;;;2.40;91.50;;;;;;5135489;27;20062;-76
2021/01/25 09:37:07;;;;;;;31.55;20.88;;;2.40;91.30;;;;;;5123829;27;20114;-77
2021/01/25 09:39:33;;;;;;;43.25;26.00;;;2.30;91.20;;;;;;5097644;28;20487;-77
2021/01/25 09:41:59;;;;;;;31.25;21.80;;;2.30;91.20;;;;;;5115600;28;20114;-77
2021/01/25 09:44:25;;;;;;;30.70;22.10;;;2.20;91.50;;;;;;5097383;28;20065;-76
2021/01/25 09:46:52;;;;;;;28.95;20.80;;;2.20;91.30;;;;;;5096682;28;20073;-76
2021/01/25 09:49:18;;;;;;;37.63;25.42;;;2.20;91.40;;;;;;5088056;27;20453;-76
2021/01/25 09:51:46;;;;;;;31.40;23.17;;;2.20;91.40;;;;;;5080474;28;20044;-77
2021/01/25 09:54:12;;;;;;;41.08;28.13;;;2.20;91.40;;;;;;5097253;28;20039;-76
2021/01/25 09:56:38;;;;;;;40.67;29.08;;;2.30;91.40;;;;;;5101720;27;20102;-77
2021/01/25 09:59:03;;;;;;;49.92;34.25;;;2.30;91.40;;;;;;5096883;28;20161;-76
2021/01/25 10:01:30;;;;;;;45.90;31.52;;;2.40;91.40;;;;;;5114546;28;20016;-76
2021/01/25 10:03:56;;;;;;;46.78;31.75;;;2.50;91.40;;;;;;5108455;28;20032;-76
2021/01/25 10:06:22;;;;;;;39.55;29.20;;;2.60;91.30;;;;;;5114742;27;20020;-76
2021/01/25 10:08:47;;;;;;;47.58;31.73;;;2.70;91.00;;;;;;5115299;28;20031;-76
2021/01/25 10:11:13;;;;;;;44.70;28.15;;;2.80;90.90;;;;;;5096612;28;20039;-76
2021/01/25 10:13:38;;;;;;;45.35;29.10;;;2.90;90.90;;;;;;5115279;27;20035;-76
2021/01/25 10:16:04;;;;;;;40.40;27.08;;;2.90;90.70;;;;;;5114833;27;20112;-77
2021/01/25 10:18:30;;;;;;;41.60;26.63;;;3.00;90.60;;;;;;5093810;27;20023;-77
2021/01/25 10:20:55;;;;;;;44.33;27.98;;;3.00;90.50;;;;;;5113655;28;20027;-77
2021/01/25 10:23:21;;;;;;;39.10;27.73;;;3.00;90.40;;;;;;5102258;28;20515;-76
2021/01/25 10:25:47;;;;;;;38.00;26.00;;;3.10;90.40;;;;;;5132348;27;20031;-76
2021/01/25 10:28:12;;;;;;;39.22;24.73;;;3.10;89.80;;;;;;5134163;27;20059;-77
2021/01/25 10:30:38;;;;;;;34.38;23.05;;;3.20;89.80;;;;;;5100714;28;20036;-77
2021/01/25 10:33:04;;;;;;;33.03;23.15;;;3.20;89.10;;;;;;5079519;28;20074;-77
2021/01/25 10:35:30;;;;;;;35.83;22.98;;;3.30;88.40;;;;;;5118190;27;20075;-76
2021/01/25 10:37:57;;;;;;;34.92;21.17;;;3.40;89.50;;;;;;5133796;27;20170;-76
2021/01/25 10:40:22;;;;;;;32.95;22.00;;;3.40;88.60;;;;;;5079133;28;20564;-76
2021/01/25 10:42:48;;;;;;;28.98;21.27;;;3.60;88.10;;;;;;5080299;28;20032;-76
2021/01/25 10:45:14;;;;;;;30.30;20.30;;;3.60;86.80;;;;;;5119890;27;20028;-77
2021/01/25 10:47:40;;;;;;;30.40;19.63;;;3.70;87.10;;;;;;5105326;28;20428;-77
2021/01/25 10:50:10;;;;;;;26.30;19.13;;;3.80;87.40;;;;;;5096785;27;20031;-76
2021/01/25 10:52:36;;;;;;;27.67;19.85;;;3.90;87.00;;;;;;5124603;27;20025;-77
2021/01/25 10:55:03;;;;;;;25.35;18.80;;;3.90;87.60;;;;;;5104439;27;20034;-77
2021/01/25 10:57:28;;;;;;;29.70;19.95;;;4.00;87.00;;;;;;5120184;27;20051;-77
2021/01/25 10:59:54;;;;;;;27.02;17.35;;;4.00;87.00;;;;;;5095976;28;20481;-76
2021/01/25 11:02:19;;;;;;;19.92;15.13;;;4.00;86.60;;;;;;5096293;28;20028;-76
2021/01/25 11:04:45;;;;;;;23.45;14.77;;;4.00;85.50;;;;;;5113708;28;20476;-76
2021/01/25 11:07:11;;;;;;;24.25;16.55;;;4.00;86.20;;;;;;5079017;28;20376;-76
2021/01/25 11:09:37;;;;;;;24.02;14.85;;;4.00;86.20;;;;;;5095618;28;20042;-76
2021/01/25 11:12:03;;;;;;;26.05;15.40;;;4.00;85.60;;;;;;5095894;28;20106;-76
2021/01/25 11:14:29;;;;;;;19.20;13.52;;;4.00;85.50;;;;;;5058644;28;20029;-77
2021/01/25 11:16:55;;;;;;;29.00;14.35;;;4.00;85.90;;;;;;5076382;28;20028;-75
2021/01/25 11:19:20;;;;;;;20.38;14.25;;;4.10;85.20;;;;;;5099408;28;20019;-75
2021/01/25 11:21:46;;;;;;;18.90;13.32;;;4.10;85.20;;;;;;5078729;28;20024;-75
2021/01/25 11:24:11;;;;;;;18.08;12.73;;;4.10;85.10;;;;;;5076021;28;20437;-75
2021/01/25 11:26:40;;;;;;;20.77;13.27;;;4.10;84.60;;;;;;5092096;28;20032;-75
2021/01/25 11:29:06;;;;;;;21.95;12.32;;;4.10;85.10;;;;;;5097355;28;20027;-75
2021/01/25 11:31:32;;;;;;;21.33;12.43;;;4.10;83.40;;;;;;5124858;27;20031;-75
2021/01/25 11:33:58;;;;;;;20.33;12.80;;;4.10;82.80;;;;;;5113583;28;20034;-85
2021/01/25 11:36:24;;;;;;;21.38;12.85;;;4.10;82.40;;;;;;5085089;28;20028;-85
2021/01/25 11:38:49;;;;;;;19.52;13.30;;;4.10;82.90;;;;;;5109949;28;20113;-85
2021/01/25 11:41:15;;;;;;;17.90;13.65;;;4.10;82.40;;;;;;5095404;28;20031;-85
2021/01/25 11:43:41;;;;;;;20.65;14.48;;;4.00;82.50;;;;;;5099098;28;20391;-84
2021/01/25 11:46:07;;;;;;;19.42;13.82;;;4.00;83.40;;;;;;5081962;28;20384;-84
2021/01/25 11:48:32;;;;;;;20.42;13.50;;;4.00;83.20;;;;;;5095307;28;20494;-84
2021/01/25 11:50:58;;;;;;;21.85;14.27;;;4.00;83.50;;;;;;5111912;27;20045;-86
2021/01/25 11:53:23;;;;;;;23.90;13.65;;;4.10;83.10;;;;;;5098978;28;20035;-85
2021/01/25 11:55:49;;;;;;;22.77;14.57;;;4.40;82.10;;;;;;5088670;28;20111;-85
2021/01/25 11:58:15;;;;;;;25.52;14.65;;;4.80;79.60;;;;;;5078608;28;20023;-85
2021/01/25 12:00:41;;;;;;;18.65;13.38;;;5.10;77.90;;;;;;5113864;28;20023;-85
2021/01/25 12:03:06;;;;;;;18.98;13.90;;;5.40;77.20;;;;;;5113684;28;20051;-85
2021/01/25 12:05:32;;;;;;;22.77;13.90;;;5.70;75.30;;;;;;5078618;28;20114;-85
2021/01/25 12:07:59;;;;;;;23.83;14.05;;;5.90;75.00;;;;;;5110193;28;20196;-83
2021/01/25 12:10:25;;;;;;;19.77;14.45;;;6.00;73.80;;;;;;5118759;27;20050;-84
2021/01/25 12:12:51;;;;;;;20.23;11.70;;;6.30;73.60;;;;;;5119606;27;20479;-84
2021/01/25 12:15:17;;;;;;;19.30;11.02;;;6.40;72.30;;;;;;5102717;27;20019;-83
2021/01/25 12:17:42;;;;;;;16.83;11.02;;;6.60;70.40;;;;;;5102190;27;20027;-84
2021/01/25 12:20:09;;;;;;;16.30;10.95;;;6.60;70.60;;;;;;5119536;27;20054;-83
2021/01/25 12:22:34;;;;;;;20.50;12.05;;;6.70;70.30;;;;;;5097263;28;20043;-84
2021/01/25 12:25:00;;;;;;;19.10;10.60;;;6.80;69.60;;;;;;5115868;28;20028;-82
2021/01/25 12:27:26;;;;;;;18.38;10.90;;;6.80;70.00;;;;;;5099116;28;20426;-84
2021/01/25 12:29:51;;;;;;;20.83;9.80;;;6.90;69.80;;;;;;5115723;28;20077;-84
2021/01/25 12:32:17;;;;;;;18.30;10.05;;;7.10;69.30;;;;;;5098186;28;20051;-83
2021/01/25 12:34:42;;;;;;;15.95;8.73;;;7.20;69.30;;;;;;5111997;27;20035;-85
2021/01/25 12:37:09;;;;;;;14.93;9.30;;;7.20;68.80;;;;;;5097131;28;20111;-84
2021/01/25 12:39:35;;;;;;;13.95;9.23;;;7.10;68.20;;;;;;5117002;28;20122;-85
2021/01/25 12:42:00;;;;;;;15.05;9.57;;;6.90;69.10;;;;;;5082623;28;20060;-85